createdAt,value
2022-10-11T00:00:43.022Z,91.82
2022-10-11T00:01:43.068Z,91.86
2022-10-11T00:02:43.009Z,91.97
2022-10-11T00:03:43.022Z,92.07
2022-10-11T00:04:43.040Z,92.17
2022-10-11T00:05:42.980Z,92.27
2022-10-11T00:06:42.961Z,92.38
2022-10-11T00:07:42.950Z,92.48
2022-10-11T00:08:42.943Z,92.44
2022-10-11T00:09:42.930Z,92.54
2022-10-11T00:10:42.970Z,92.54
2022-10-11T00:11:42.909Z,92.44
2022-10-11T00:12:42.899Z,92.44
2022-10-11T00:13:42.888Z,92.44
2022-10-11T00:14:42.882Z,92.44
2022-10-11T00:15:42.860Z,92.44
2022-10-11T00:16:42.909Z,92.33
2022-10-11T00:17:42.840Z,92.33
2022-10-11T00:18:42.841Z,92.17
2022-10-11T00:19:42.818Z,92.17
2022-10-11T00:20:42.839Z,92.17
2022-10-11T00:21:42.797Z,92.07
2022-10-11T00:22:42.816Z,92.07
2022-10-11T00:23:42.768Z,92.07
2022-10-11T00:24:42.769Z,92.21
2022-10-11T00:25:42.779Z,92.21
2022-10-11T00:26:46.601Z,92.21
2022-10-11T00:27:42.743Z,92.32
2022-10-11T00:28:42.760Z,92.32
2022-10-11T00:29:42.706Z,92.42
2022-10-11T00:30:42.737Z,92.57
2022-10-11T00:31:42.708Z,92.67
2022-10-11T00:32:42.678Z,92.77
2022-10-11T00:33:42.659Z,92.97
2022-10-11T00:34:42.658Z,93.08
2022-10-11T00:35:42.646Z,93.18
2022-10-11T00:36:42.679Z,93.39
2022-10-11T00:37:42.618Z,93.59
2022-10-11T00:38:42.638Z,93.59
2022-10-11T00:39:42.599Z,93.70
2022-10-11T00:40:42.617Z,93.70
2022-10-11T00:41:42.577Z,93.80
2022-10-11T00:42:42.739Z,93.80
2022-10-11T00:43:42.557Z,93.90
2022-10-11T00:44:42.547Z,93.90
2022-10-11T00:45:42.536Z,93.90
2022-10-11T00:46:42.530Z,93.90
2022-10-11T00:47:42.507Z,93.90
2022-10-11T00:48:42.526Z,94.01
2022-10-11T00:49:42.489Z,94.01
2022-10-11T00:50:42.487Z,94.01
2022-10-11T00:51:42.536Z,93.90
2022-10-11T00:52:42.457Z,93.90
2022-10-11T00:53:42.450Z,93.80
2022-10-11T00:54:42.438Z,93.70
2022-10-11T00:55:42.426Z,93.70
2022-10-11T00:56:42.438Z,93.59
2022-10-11T00:57:42.437Z,93.59
2022-10-11T00:58:42.399Z,93.49
2022-10-11T00:59:42.406Z,93.49
2022-10-11T01:00:42.377Z,93.49
2022-10-11T01:01:42.475Z,93.49
2022-10-11T01:02:42.394Z,93.49
2022-10-11T01:03:42.356Z,93.49
2022-10-11T01:04:42.335Z,93.49
2022-10-11T01:05:42.317Z,93.49
2022-10-11T01:06:42.376Z,93.49
2022-10-11T01:07:42.296Z,93.49
2022-10-11T01:08:42.313Z,93.43
2022-10-11T01:09:42.288Z,93.54
2022-10-11T01:10:42.294Z,93.54
2022-10-11T01:11:42.271Z,93.54
2022-10-11T01:12:42.268Z,93.54
2022-10-11T01:13:42.265Z,93.64
2022-10-11T01:14:42.224Z,93.64
2022-10-11T01:15:42.225Z,93.70
2022-10-11T01:16:42.205Z,93.70
2022-10-11T01:17:42.184Z,93.70
2022-10-11T01:18:42.182Z,93.70
2022-10-11T01:19:42.188Z,93.70
2022-10-11T01:20:42.157Z,93.70
2022-10-11T01:21:42.154Z,93.59
2022-10-11T01:22:42.168Z,93.59
2022-10-11T01:23:42.154Z,93.59
2022-10-11T01:24:42.123Z,93.59
2022-10-11T01:25:42.111Z,93.49
2022-10-11T01:26:42.111Z,93.49
2022-10-11T01:27:42.083Z,93.59
2022-10-11T01:28:42.197Z,93.49
2022-10-11T01:29:42.069Z,93.49
2022-10-11T01:30:42.061Z,93.49
2022-10-11T01:31:42.033Z,93.49
2022-10-11T01:32:42.039Z,93.49
2022-10-11T01:33:42.020Z,93.39
2022-10-11T01:34:42.031Z,93.49
2022-10-11T01:35:41.993Z,93.39
2022-10-11T01:36:41.985Z,93.29
2022-10-11T01:37:41.973Z,93.18
2022-10-11T01:38:43.692Z,93.08
2022-10-11T01:39:41.949Z,93.08
2022-10-11T01:40:41.955Z,93.08
2022-10-11T01:41:41.953Z,93.02
2022-10-11T01:42:41.923Z,93.02
2022-10-11T01:43:41.912Z,93.02
2022-10-11T01:44:41.950Z,92.92
2022-10-11T01:45:41.912Z,93.02
2022-10-11T01:46:41.883Z,93.02
2022-10-11T01:47:41.862Z,93.02
2022-10-11T01:48:41.869Z,93.02
2022-10-11T01:49:41.879Z,93.02
2022-10-11T01:50:41.839Z,93.02
2022-10-11T01:51:45.210Z,93.12
2022-10-11T01:52:42.819Z,93.12
2022-10-11T01:53:41.804Z,93.12
2022-10-11T01:55:04.367Z,93.12
2022-10-11T01:55:42.832Z,93.12
2022-10-11T01:56:41.781Z,93.12
2022-10-11T01:57:41.752Z,93.02
2022-10-11T01:58:41.752Z,93.02
2022-10-11T01:59:41.799Z,92.96
2022-10-11T02:00:41.723Z,92.96
2022-10-11T02:01:42.011Z,93.06
2022-10-11T02:02:41.711Z,93.06
2022-10-11T02:03:41.691Z,93.27
2022-10-11T02:04:41.691Z,93.37
2022-10-11T02:05:41.671Z,93.48
2022-10-11T02:06:41.819Z,93.48
2022-10-11T02:07:41.653Z,93.48
2022-10-11T02:08:41.640Z,93.48
2022-10-11T02:09:41.631Z,93.37
2022-10-11T02:10:41.630Z,93.37
2022-10-11T02:11:44.849Z,93.41
2022-10-11T02:12:41.599Z,93.41
2022-10-11T02:13:41.591Z,93.31
2022-10-11T02:14:41.588Z,93.41
2022-10-11T02:15:41.568Z,93.52
2022-10-11T02:16:41.578Z,93.62
2022-10-11T02:17:41.581Z,93.62
2022-10-11T02:18:41.540Z,93.73
2022-10-11T02:19:41.720Z,93.83
2022-10-11T02:20:41.519Z,93.83
2022-10-11T02:21:41.499Z,93.73
2022-10-11T02:22:41.497Z,93.73
2022-10-11T02:23:41.478Z,93.73
2022-10-11T02:24:41.499Z,93.73
2022-10-11T02:25:41.518Z,93.73
2022-10-11T02:26:41.451Z,93.77
2022-10-11T02:27:41.529Z,93.77
2022-10-11T02:28:41.521Z,93.87
2022-10-11T02:29:41.417Z,93.87
2022-10-11T02:30:41.409Z,93.87
2022-10-11T02:31:41.388Z,93.87
2022-10-11T02:32:41.393Z,93.87
2022-10-11T02:33:41.377Z,93.98
2022-10-11T02:34:41.390Z,93.98
2022-10-11T02:35:41.348Z,94.02
2022-10-11T02:36:41.342Z,94.12
2022-10-11T02:37:41.327Z,94.08
2022-10-11T02:38:41.348Z,94.23
2022-10-11T02:39:41.327Z,94.32
2022-10-11T02:40:41.352Z,94.32
2022-10-11T02:41:41.277Z,94.49
2022-10-11T02:42:41.279Z,94.59
2022-10-11T02:43:41.264Z,94.70
2022-10-11T02:44:41.258Z,94.80
2022-10-11T02:45:41.304Z,94.80
2022-10-11T02:46:41.237Z,94.80
2022-10-11T02:47:41.232Z,94.90
2022-10-11T02:48:41.218Z,94.90
2022-10-11T02:49:41.268Z,94.80
2022-10-11T02:50:42.079Z,94.80
2022-10-11T02:51:41.187Z,94.70
2022-10-11T02:52:41.176Z,94.70
2022-10-11T02:53:41.168Z,94.70
2022-10-11T02:54:41.147Z,94.65
2022-10-11T02:55:41.166Z,94.55
2022-10-11T02:56:41.126Z,94.55
2022-10-11T02:57:41.109Z,94.45
2022-10-11T02:58:41.114Z,94.45
2022-10-11T02:59:41.096Z,94.34
2022-10-11T03:00:41.087Z,94.24
2022-10-11T03:01:41.180Z,94.13
2022-10-11T03:02:41.065Z,94.03
2022-10-11T03:03:41.046Z,93.83
2022-10-11T03:04:41.045Z,93.83
2022-10-11T03:05:41.024Z,93.73
2022-10-11T03:06:41.043Z,93.62
2022-10-11T03:07:41.047Z,93.52
2022-10-11T03:08:40.995Z,93.41
2022-10-11T03:09:41.013Z,93.41
2022-10-11T03:10:40.974Z,93.31
2022-10-11T03:11:40.955Z,93.31
2022-10-11T03:12:40.955Z,93.21
2022-10-11T03:13:41.004Z,93.21
2022-10-11T03:14:40.946Z,93.21
2022-10-11T03:15:40.935Z,93.21
2022-10-11T03:16:40.914Z,93.31
2022-10-11T03:17:40.894Z,93.31
2022-10-11T03:18:40.885Z,93.52
2022-10-11T03:19:40.926Z,93.52
2022-10-11T03:20:40.931Z,93.62
2022-10-11T03:21:40.855Z,93.58
2022-10-11T03:22:40.844Z,93.79
2022-10-11T03:23:40.832Z,93.88
2022-10-11T03:24:40.853Z,94.09
2022-10-11T03:25:47.863Z,94.20
2022-10-11T03:26:40.814Z,94.40
2022-10-11T03:27:40.800Z,94.51
2022-10-11T03:28:40.861Z,94.51
2022-10-11T03:29:40.768Z,94.51
2022-10-11T03:30:40.826Z,94.55
2022-10-11T03:31:40.751Z,94.65
2022-10-11T03:32:40.745Z,94.71
2022-10-11T03:33:40.730Z,94.71
2022-10-11T03:34:40.742Z,94.81
2022-10-11T03:35:40.711Z,94.81
2022-10-11T03:36:40.730Z,94.71
2022-10-11T03:37:40.730Z,94.60
2022-10-11T03:38:40.684Z,94.65
2022-10-11T03:39:40.660Z,94.65
2022-10-11T03:40:40.692Z,94.55
2022-10-11T03:41:40.639Z,94.55
2022-10-11T03:42:40.691Z,94.65
2022-10-11T03:43:40.619Z,94.65
2022-10-11T03:44:40.611Z,94.60
2022-10-11T03:45:40.608Z,94.60
2022-10-11T03:46:40.630Z,94.51
2022-10-11T03:47:40.581Z,94.51
2022-10-11T03:48:40.570Z,94.51
2022-10-11T03:49:43.585Z,94.51
2022-10-11T03:50:40.586Z,94.51
2022-10-11T03:51:40.559Z,94.51
2022-10-11T03:52:40.528Z,94.60
2022-10-11T03:53:40.519Z,94.71
2022-10-11T03:54:40.538Z,94.92
2022-10-11T03:55:40.501Z,95.12
2022-10-11T03:56:40.480Z,95.23
2022-10-11T03:57:40.500Z,95.43
2022-10-11T03:58:40.470Z,95.53
2022-10-11T03:59:40.501Z,95.43
2022-10-11T04:00:40.437Z,95.43
2022-10-11T04:01:40.483Z,95.43
2022-10-11T04:02:40.409Z,95.33
2022-10-11T04:03:40.406Z,95.33
2022-10-11T04:04:40.428Z,95.64
2022-10-11T04:05:40.385Z,95.74
2022-10-11T04:06:40.395Z,95.84
2022-10-11T04:07:40.371Z,96.15
2022-10-11T04:08:40.433Z,96.15
2022-10-11T04:09:40.356Z,96.05
2022-10-11T04:10:40.377Z,95.99
2022-10-11T04:11:40.318Z,95.78
2022-10-11T04:12:40.317Z,95.83
2022-10-11T04:13:40.305Z,95.73
2022-10-11T04:14:40.327Z,95.93
2022-10-11T04:15:40.294Z,96.03
2022-10-11T04:16:40.298Z,96.14
2022-10-11T04:17:40.287Z,96.24
2022-10-11T04:18:40.240Z,96.34
2022-10-11T04:19:40.277Z,96.75
2022-10-11T04:20:40.217Z,97.23
2022-10-11T04:21:43.583Z,97.49
2022-10-11T04:22:40.231Z,97.90
2022-10-11T04:23:40.187Z,98.00
2022-10-11T04:24:40.173Z,98.11
2022-10-11T04:25:40.218Z,98.11
2022-10-11T04:26:40.156Z,98.11
2022-10-11T04:27:40.216Z,98.00
2022-10-11T04:28:40.263Z,98.00
2022-10-11T04:29:40.127Z,98.00
2022-10-11T04:30:40.114Z,98.00
2022-10-11T04:31:40.203Z,97.90
2022-10-11T04:32:40.087Z,97.80
2022-10-11T04:33:40.084Z,97.69
2022-10-11T04:34:40.106Z,97.60
2022-10-11T04:35:40.063Z,97.39
2022-10-11T04:36:40.051Z,97.28
2022-10-11T04:37:40.035Z,97.18
2022-10-11T04:38:40.031Z,97.08
2022-10-11T04:39:40.015Z,96.97
2022-10-11T04:40:40.113Z,96.88
2022-10-11T04:41:40.005Z,96.56
2022-10-11T04:42:40.025Z,96.15
2022-10-11T04:43:39.976Z,95.95
2022-10-11T04:44:39.993Z,95.70
2022-10-11T04:45:40.002Z,95.49
2022-10-11T04:46:39.975Z,95.39
2022-10-11T04:47:39.935Z,95.39
2022-10-11T04:48:39.945Z,95.49
2022-10-11T04:49:39.903Z,95.28
2022-10-11T04:50:39.893Z,94.98
2022-10-11T04:51:39.891Z,94.77
2022-10-11T04:52:39.876Z,94.56
2022-10-11T04:53:39.903Z,94.46
2022-10-11T04:54:39.854Z,94.60
2022-10-11T04:55:39.880Z,94.60
2022-10-11T04:56:39.834Z,94.71
2022-10-11T04:57:39.838Z,94.71
2022-10-11T04:58:39.846Z,94.60
2022-10-11T04:59:39.803Z,94.51
2022-10-11T05:00:39.791Z,94.55
2022-10-11T05:01:39.907Z,94.45
2022-10-11T05:02:39.766Z,94.34
2022-10-11T05:03:39.794Z,94.24
2022-10-11T05:04:39.742Z,94.24
2022-10-11T05:05:39.785Z,94.24
2022-10-11T05:06:39.765Z,94.28
2022-10-11T05:07:39.713Z,94.28
2022-10-11T05:08:39.702Z,94.49
2022-10-11T05:09:39.691Z,94.90
2022-10-11T05:10:39.673Z,95.21
2022-10-11T05:11:39.673Z,95.27
2022-10-11T05:12:39.702Z,95.48
2022-10-11T05:13:39.921Z,95.48
2022-10-11T05:14:39.652Z,95.58
2022-10-11T05:15:39.632Z,95.68
2022-10-11T05:16:39.614Z,95.68
2022-10-11T05:17:39.611Z,95.68
2022-10-11T05:18:39.598Z,95.62
2022-10-11T05:19:39.624Z,95.52
2022-10-11T05:20:39.572Z,95.52
2022-10-11T05:21:39.571Z,95.52
2022-10-11T05:22:39.551Z,95.52
2022-10-11T05:23:39.572Z,95.62
2022-10-11T05:24:39.552Z,95.62
2022-10-11T05:25:39.519Z,95.73
2022-10-11T05:26:39.512Z,95.73
2022-10-11T05:27:39.501Z,95.83
2022-10-11T05:28:39.598Z,95.93
2022-10-11T05:29:39.480Z,95.93
2022-10-11T05:30:39.470Z,96.03
2022-10-11T05:31:39.451Z,96.03
2022-10-11T05:32:39.430Z,96.14
2022-10-11T05:33:39.439Z,96.14
2022-10-11T05:34:39.490Z,96.14
2022-10-11T05:35:39.411Z,96.14
2022-10-11T05:36:39.400Z,96.14
2022-10-11T05:37:39.395Z,96.18
2022-10-11T05:38:39.385Z,96.28
2022-10-11T05:39:39.370Z,96.39
2022-10-11T05:40:39.498Z,96.45
2022-10-11T05:41:39.390Z,96.55
2022-10-11T05:42:39.331Z,96.66
2022-10-11T05:43:39.329Z,96.86
2022-10-11T05:44:39.310Z,97.06
2022-10-11T05:45:39.319Z,97.06
2022-10-11T05:46:39.331Z,97.17
2022-10-11T05:47:39.289Z,97.27
2022-10-11T05:48:39.269Z,97.27
2022-10-11T05:49:39.283Z,97.27
2022-10-11T05:50:39.289Z,97.27
2022-10-11T05:51:39.285Z,97.17
2022-10-11T05:52:39.231Z,97.21
2022-10-11T05:53:39.245Z,97.21
2022-10-11T05:54:39.198Z,97.31
2022-10-11T05:55:39.203Z,97.31
2022-10-11T05:56:39.253Z,97.31
2022-10-11T05:57:39.167Z,97.31
2022-10-11T05:58:39.198Z,97.42
2022-10-11T05:59:39.147Z,97.52
2022-10-11T06:00:39.139Z,97.63
2022-10-11T06:01:39.250Z,97.63
2022-10-11T06:02:39.129Z,97.63
2022-10-11T06:03:39.137Z,97.63
2022-10-11T06:04:39.096Z,97.63
2022-10-11T06:05:39.084Z,97.63
2022-10-11T06:06:39.107Z,97.63
2022-10-11T06:07:39.057Z,97.52
2022-10-11T06:08:39.047Z,97.63
2022-10-11T06:09:39.076Z,97.73
2022-10-11T06:10:39.041Z,97.73
2022-10-11T06:11:39.065Z,97.78
2022-10-11T06:12:39.008Z,97.78
2022-10-11T06:13:39.029Z,97.89
2022-10-11T06:14:39.084Z,97.99
2022-10-11T06:15:38.979Z,97.99
2022-10-11T06:16:38.968Z,97.99
2022-10-11T06:17:38.956Z,98.10
2022-10-11T06:18:38.978Z,98.36
2022-10-11T06:19:38.977Z,98.57
2022-10-11T06:20:38.928Z,98.52
2022-10-11T06:21:38.916Z,98.52
2022-10-11T06:22:38.946Z,98.46
2022-10-11T06:23:38.906Z,98.36
2022-10-11T06:24:38.886Z,98.25
2022-10-11T06:25:38.963Z,98.15
2022-10-11T06:26:40.626Z,98.10
2022-10-11T06:27:38.864Z,97.99
2022-10-11T06:28:38.916Z,97.99
2022-10-11T06:29:38.833Z,97.89
2022-10-11T06:30:38.816Z,97.89
2022-10-11T06:31:38.816Z,97.78
2022-10-11T06:32:38.824Z,97.68
2022-10-11T06:33:38.803Z,97.63
2022-10-11T06:34:38.785Z,97.52
2022-10-11T06:35:38.797Z,97.52
2022-10-11T06:36:38.755Z,97.52
2022-10-11T06:37:38.754Z,97.63
2022-10-11T06:38:43.829Z,97.68
2022-10-11T06:39:39.835Z,97.89
2022-10-11T06:40:38.706Z,97.99
2022-10-11T06:41:38.715Z,98.05
2022-10-11T06:42:38.707Z,98.15
2022-10-11T06:43:38.687Z,98.15
2022-10-11T06:44:38.706Z,98.25
2022-10-11T06:45:38.990Z,98.21
2022-10-11T06:46:38.674Z,98.21
2022-10-11T06:47:38.693Z,98.21
2022-10-11T06:48:38.622Z,98.21
2022-10-11T06:49:38.613Z,98.21
2022-10-11T06:50:58.663Z,98.21
2022-10-11T06:51:39.613Z,98.21
2022-10-11T06:52:38.580Z,98.21
2022-10-11T06:53:38.573Z,98.21
2022-10-11T06:54:43.921Z,98.11
2022-10-11T06:55:39.658Z,98.00
2022-10-11T06:56:38.613Z,97.90
2022-10-11T06:57:38.572Z,97.80
2022-10-11T06:58:38.516Z,97.69
2022-10-11T06:59:38.503Z,97.65
2022-10-11T07:00:38.549Z,97.44
2022-10-11T07:01:38.649Z,97.44
2022-10-11T07:02:38.475Z,97.44
2022-10-11T07:03:38.463Z,97.44
2022-10-11T07:04:38.452Z,97.44
2022-10-11T07:05:38.454Z,97.55
2022-10-11T07:06:43.691Z,97.55
2022-10-11T07:07:38.432Z,97.61
2022-10-11T07:08:38.419Z,97.61
2022-10-11T07:09:38.419Z,97.61
2022-10-11T07:10:38.381Z,97.50
2022-10-11T07:11:38.424Z,97.40
2022-10-11T07:12:38.523Z,97.40
2022-10-11T07:13:38.368Z,97.40
2022-10-11T07:14:38.340Z,97.40
2022-10-11T07:15:38.357Z,97.36
2022-10-11T07:16:38.337Z,97.36
2022-10-11T07:17:38.315Z,97.36
2022-10-11T07:18:38.500Z,97.25
2022-10-11T07:19:38.291Z,97.15
2022-10-11T07:20:38.278Z,96.94
2022-10-11T07:21:38.269Z,96.84
2022-10-11T07:22:38.260Z,96.64
2022-10-11T07:23:38.541Z,96.53
2022-10-11T07:24:38.238Z,96.53
2022-10-11T07:25:38.219Z,96.33
2022-10-11T07:26:39.338Z,96.33
2022-10-11T07:27:38.210Z,96.43
2022-10-11T07:28:38.251Z,96.43
2022-10-11T07:29:38.209Z,96.43
2022-10-11T07:30:38.166Z,96.43
2022-10-11T07:31:38.208Z,96.33
2022-10-11T07:32:38.149Z,96.33
2022-10-11T07:33:38.140Z,96.33
2022-10-11T07:34:38.250Z,96.43
2022-10-11T07:35:38.194Z,96.53
2022-10-11T07:36:38.111Z,96.53
2022-10-11T07:37:38.098Z,96.64
2022-10-11T07:38:38.128Z,96.73
2022-10-11T07:39:38.087Z,96.73
2022-10-11T07:40:38.077Z,96.84
2022-10-11T07:41:41.819Z,96.80
2022-10-11T07:42:39.047Z,96.90
2022-10-11T07:43:38.050Z,97.00
2022-10-11T07:44:38.228Z,97.00
2022-10-11T07:45:38.019Z,97.00
2022-10-11T07:46:38.055Z,96.95
2022-10-11T07:47:37.990Z,96.95
2022-10-11T07:48:38.007Z,96.95
2022-10-11T07:49:38.006Z,96.95
2022-10-11T07:50:37.959Z,96.95
2022-10-11T07:51:37.948Z,96.95
2022-10-11T07:52:37.939Z,97.06
2022-10-11T07:53:37.920Z,96.91
2022-10-11T07:54:37.898Z,96.91
2022-10-11T07:55:37.946Z,96.81
2022-10-11T07:56:37.885Z,96.70
2022-10-11T07:57:37.878Z,96.60
2022-10-11T07:58:37.869Z,96.50
2022-10-11T07:59:37.858Z,96.40
2022-10-11T08:00:37.932Z,96.40
2022-10-11T08:01:37.892Z,96.40
2022-10-11T08:02:37.842Z,96.30
2022-10-11T08:03:37.848Z,96.30
2022-10-11T08:04:37.901Z,96.30
2022-10-11T08:05:37.819Z,96.30
2022-10-11T08:06:37.827Z,96.19
2022-10-11T08:07:37.767Z,96.25
2022-10-11T08:08:37.806Z,96.15
2022-10-11T08:09:37.766Z,96.15
2022-10-11T08:10:37.798Z,96.15
2022-10-11T08:11:37.880Z,96.15
2022-10-11T08:12:37.728Z,96.25
2022-10-11T08:13:37.716Z,96.25
2022-10-11T08:14:37.696Z,96.20
2022-10-11T08:15:37.715Z,96.20
2022-10-11T08:16:37.683Z,96.31
2022-10-11T08:17:37.725Z,96.31
2022-10-11T08:18:37.683Z,96.41
2022-10-11T08:19:37.692Z,96.51
2022-10-11T08:20:37.701Z,96.47
2022-10-11T08:21:37.618Z,96.37
2022-10-11T08:22:37.643Z,96.37
2022-10-11T08:23:37.595Z,96.37
2022-10-11T08:24:38.520Z,96.32
2022-10-11T08:25:37.608Z,96.32
2022-10-11T08:26:37.566Z,96.22
2022-10-11T08:27:37.560Z,96.01
2022-10-11T08:28:37.671Z,95.91
2022-10-11T08:29:37.567Z,95.91
2022-10-11T08:30:37.524Z,95.87
2022-10-11T08:31:37.575Z,95.76
2022-10-11T08:32:37.496Z,95.56
2022-10-11T08:33:37.489Z,95.56
2022-10-11T08:34:37.510Z,95.46
2022-10-11T08:35:37.493Z,95.36
2022-10-11T08:36:37.461Z,95.36
2022-10-11T08:37:37.436Z,95.21
2022-10-11T08:38:37.492Z,95.10
2022-10-11T08:39:37.446Z,94.90
2022-10-11T08:40:37.436Z,94.70
2022-10-11T08:41:37.397Z,94.75
2022-10-11T08:42:37.413Z,94.55
2022-10-11T08:43:37.375Z,94.34
2022-10-11T08:45:05.617Z,94.24
2022-10-11T08:45:38.359Z,94.04
2022-10-11T08:46:37.407Z,93.73
2022-10-11T08:47:37.366Z,93.43
2022-10-11T08:48:37.325Z,93.07
2022-10-11T08:49:37.305Z,92.87
2022-10-11T08:50:37.308Z,92.66
2022-10-11T08:51:37.295Z,92.46
2022-10-11T08:52:37.285Z,92.25
2022-10-11T08:53:37.484Z,92.21
2022-10-11T08:54:37.356Z,92.11
2022-10-11T08:55:37.256Z,92.01
2022-10-11T08:56:37.242Z,91.91
2022-10-11T08:57:37.228Z,91.80
2022-10-11T08:58:37.237Z,91.70
2022-10-11T08:59:37.204Z,91.60
2022-10-11T09:00:40.867Z,91.50
2022-10-11T09:01:37.384Z,91.46
2022-10-11T09:03:02.841Z,91.25
2022-10-11T09:03:38.173Z,90.84
2022-10-11T09:04:37.156Z,90.53
2022-10-11T09:05:37.145Z,90.33
2022-10-11T09:06:47.955Z,89.61
2022-10-11T09:07:37.114Z,89.41
2022-10-11T09:08:37.116Z,89.31
2022-10-11T09:09:37.106Z,89.37
2022-10-11T09:10:37.085Z,89.47
2022-10-11T09:11:37.066Z,89.26
2022-10-11T09:12:40.643Z,89.26
2022-10-11T09:13:37.043Z,88.76
2022-10-11T09:14:37.071Z,88.04
2022-10-11T09:15:37.034Z,87.12
2022-10-11T09:16:37.042Z,86.71
2022-10-11T09:17:37.003Z,86.71
2022-10-11T09:18:37.049Z,86.20
2022-10-11T09:19:36.984Z,86.47
2022-10-11T09:20:36.990Z,86.67
2022-10-11T09:21:36.978Z,86.57
2022-10-11T09:22:36.956Z,86.36
2022-10-11T09:23:36.934Z,87.49
2022-10-11T09:24:37.079Z,87.45
2022-10-11T09:25:43.985Z,87.04
2022-10-11T09:26:36.921Z,87.14
2022-10-11T09:28:01.341Z,86.73
2022-10-11T09:28:37.907Z,86.73
2022-10-11T09:29:36.861Z,86.59
2022-10-11T09:30:36.861Z,86.49
2022-10-11T09:31:36.868Z,86.29
2022-10-11T09:32:36.861Z,86.18
2022-10-11T09:33:36.822Z,85.68
2022-10-11T09:34:36.810Z,85.47
2022-10-11T09:35:36.799Z,85.47
2022-10-11T09:36:36.830Z,85.16
2022-10-11T09:37:36.804Z,84.72
2022-10-11T09:38:36.771Z,84.51
2022-10-11T09:39:36.772Z,84.92
2022-10-11T09:40:36.770Z,84.72
2022-10-11T09:41:36.741Z,84.41
2022-10-11T09:42:36.741Z,83.59
2022-10-11T09:43:36.745Z,83.45
2022-10-11T09:44:36.711Z,83.59
2022-10-11T09:45:36.713Z,83.45
2022-10-11T09:46:36.683Z,83.35
2022-10-11T09:47:36.669Z,82.64
2022-10-11T09:48:36.660Z,82.33
2022-10-11T09:49:36.641Z,82.03
2022-10-11T09:50:36.689Z,82.03
2022-10-11T09:51:36.663Z,81.41
2022-10-11T09:52:36.630Z,81.41
2022-10-11T09:53:36.613Z,81.01
2022-10-11T09:54:36.669Z,80.91
2022-10-11T09:55:36.578Z,81.21
2022-10-11T09:56:36.569Z,80.16
2022-10-11T09:57:36.582Z,80.26
2022-10-11T09:58:36.580Z,80.26
2022-10-11T09:59:36.546Z,79.95
2022-10-11T10:00:36.540Z,79.95
2022-10-11T10:01:36.614Z,80.05
2022-10-11T10:02:36.527Z,79.75
2022-10-11T10:03:36.510Z,79.71
2022-10-11T10:04:36.500Z,79.50
2022-10-11T10:05:36.488Z,79.61
2022-10-11T10:06:36.492Z,79.41
2022-10-11T10:07:39.409Z,79.10
2022-10-11T10:08:36.542Z,78.49
2022-10-11T10:09:36.431Z,78.25
2022-10-11T10:10:36.432Z,78.45
2022-10-11T10:11:36.462Z,78.66
2022-10-11T10:12:36.409Z,77.33
2022-10-11T10:13:36.403Z,76.11
2022-10-11T10:14:36.387Z,75.40
2022-10-11T10:15:36.388Z,74.28
2022-10-11T10:16:44.849Z,73.77
2022-10-11T10:17:36.366Z,71.53
2022-10-11T10:18:36.351Z,71.43
2022-10-11T10:19:38.890Z,71.33
2022-10-11T10:20:36.319Z,71.73
2022-10-11T10:21:36.329Z,69.49
2022-10-11T10:22:36.319Z,69.49
2022-10-11T10:23:36.278Z,69.19
2022-10-11T10:24:36.269Z,69.70
2022-10-11T10:25:40.882Z,71.23
2022-10-11T10:26:37.283Z,71.64
2022-10-11T10:27:36.240Z,70.92
2022-10-11T10:28:36.273Z,70.10
2022-10-11T10:29:36.218Z,70.01
2022-10-11T10:30:36.247Z,70.34
2022-10-11T10:31:49.540Z,70.55
2022-10-11T10:32:37.189Z,70.95
2022-10-11T10:33:36.198Z,71.67
2022-10-11T10:34:36.176Z,72.04
2022-10-11T10:35:36.149Z,71.64
2022-10-11T10:36:36.139Z,71.33
2022-10-11T10:37:36.130Z,71.23
2022-10-11T10:38:36.176Z,70.82
2022-10-11T10:39:36.110Z,71.33
2022-10-11T10:40:36.101Z,71.12
2022-10-11T10:41:36.110Z,71.12
2022-10-11T10:42:36.090Z,71.33
2022-10-11T10:43:36.071Z,70.41
2022-10-11T10:44:36.059Z,71.23
2022-10-11T10:45:36.039Z,71.50
2022-10-11T10:46:36.044Z,70.89
2022-10-11T10:47:36.167Z,70.18
2022-10-11T10:49:02.040Z,69.87
2022-10-11T10:49:54.563Z,70.07
2022-10-11T10:50:36.989Z,69.57
2022-10-11T10:51:35.982Z,69.46
2022-10-11T10:52:36.025Z,69.43
2022-10-11T10:53:35.979Z,69.64
2022-10-11T10:54:35.949Z,69.43
2022-10-11T10:55:35.959Z,69.43
2022-10-11T10:56:35.950Z,69.43
2022-10-11T10:57:35.952Z,69.33
2022-10-11T10:58:35.908Z,68.92
2022-10-11T10:59:35.889Z,68.62
2022-10-11T11:00:35.880Z,68.01
2022-10-11T11:01:35.934Z,68.18
2022-10-11T11:02:40.689Z,68.38
2022-10-11T11:03:36.920Z,68.49
2022-10-11T11:04:39.929Z,68.18
2022-10-11T11:05:35.819Z,67.57
2022-10-11T11:06:36.681Z,67.97
2022-10-11T11:07:35.849Z,66.86
2022-10-11T11:08:35.789Z,66.35
2022-10-11T11:09:35.780Z,67.36
2022-10-11T11:10:35.772Z,67.97
2022-10-11T11:11:38.302Z,67.77
2022-10-11T11:12:35.769Z,67.27
2022-10-11T11:13:35.735Z,67.10
2022-10-11T11:14:35.728Z,66.38
2022-10-11T11:15:38.103Z,66.69
2022-10-11T11:16:35.706Z,66.89
2022-10-11T11:17:35.699Z,67.19
2022-10-11T11:18:35.808Z,67.30
2022-10-11T11:19:35.680Z,67.60
2022-10-11T11:20:35.678Z,67.91
2022-10-11T11:22:46.021Z,67.80
2022-10-11T11:23:46.024Z,67.19
2022-10-11T11:24:48.620Z,67.50
2022-10-11T11:25:45.971Z,66.99
2022-10-11T11:26:45.990Z,65.50
2022-10-11T11:27:45.954Z,66.31
2022-10-11T11:28:45.992Z,66.61
2022-10-11T11:29:45.930Z,66.92
2022-10-11T11:30:45.920Z,66.72
2022-10-11T11:31:45.940Z,67.10
2022-10-11T11:32:46.029Z,67.30
2022-10-11T11:33:48.800Z,67.71
2022-10-11T11:34:45.870Z,67.30
2022-10-11T11:35:45.872Z,67.30
2022-10-11T11:36:45.880Z,67.10
2022-10-11T11:37:45.879Z,67.30
2022-10-11T11:38:45.844Z,66.99
2022-10-11T11:39:45.837Z,67.30
2022-10-11T11:40:45.814Z,67.50
2022-10-11T11:41:45.811Z,67.60
2022-10-11T11:42:45.819Z,67.80
2022-10-11T11:43:45.811Z,67.40
2022-10-11T11:44:45.779Z,67.06
2022-10-11T11:45:45.774Z,67.57
2022-10-11T11:46:45.750Z,67.67
2022-10-11T11:47:46.003Z,67.27
2022-10-11T11:48:45.735Z,66.46
2022-10-11T11:49:45.729Z,66.25
2022-10-11T11:50:45.751Z,66.02
2022-10-11T11:51:45.702Z,65.91
2022-10-11T11:52:45.722Z,65.91
2022-10-11T11:53:45.678Z,66.63
2022-10-11T11:54:45.668Z,65.00
2022-10-11T11:55:45.662Z,64.49
2022-10-11T11:56:45.656Z,64.70
2022-10-11T11:57:45.646Z,64.49
2022-10-11T11:58:45.650Z,64.59
2022-10-11T11:59:45.612Z,65.41
2022-10-11T12:00:50.870Z,65.71
2022-10-11T12:01:45.666Z,65.99
2022-10-11T12:02:45.582Z,66.19
2022-10-11T12:03:45.571Z,65.07
2022-10-11T12:04:45.569Z,65.17
2022-10-11T12:05:45.551Z,64.26
2022-10-11T12:07:14.531Z,64.26
2022-10-11T12:07:46.532Z,64.06
2022-10-11T12:08:45.520Z,63.95
2022-10-11T12:09:45.502Z,64.46
2022-10-11T12:10:45.500Z,64.36
2022-10-11T12:11:45.678Z,63.75
2022-10-11T12:12:45.472Z,63.55
2022-10-11T12:13:45.461Z,63.24
2022-10-11T12:14:45.450Z,63.55
2022-10-11T12:15:45.456Z,63.65
2022-10-11T12:16:45.421Z,63.24
2022-10-11T12:17:45.442Z,63.14
2022-10-11T12:18:45.402Z,63.07
2022-10-11T12:19:45.390Z,60.94
2022-10-11T12:20:45.410Z,61.34
2022-10-11T12:21:45.372Z,60.63
2022-10-11T12:22:45.380Z,61.52
2022-10-11T12:23:45.350Z,61.62
2022-10-11T12:24:45.521Z,61.32
2022-10-11T12:25:45.332Z,61.62
2022-10-11T12:26:45.321Z,61.72
2022-10-11T12:27:45.312Z,61.41
2022-10-11T12:28:45.378Z,61.11
2022-10-11T12:29:45.290Z,60.98
2022-10-11T12:30:52.321Z,59.46
2022-10-11T12:31:46.276Z,59.86
2022-10-11T12:32:45.252Z,59.97
2022-10-11T12:33:45.241Z,60.47
2022-10-11T12:34:45.232Z,60.47
2022-10-11T12:35:45.261Z,60.07
2022-10-11T12:36:45.620Z,60.27
2022-10-11T12:37:45.201Z,59.97
2022-10-11T12:38:45.182Z,59.56
2022-10-11T12:39:45.180Z,59.77
2022-10-11T12:40:45.170Z,60.07
2022-10-11T12:41:45.230Z,60.37
2022-10-11T12:42:45.178Z,60.27
2022-10-11T12:43:45.142Z,60.47
2022-10-11T12:44:45.130Z,60.68
2022-10-11T12:45:45.112Z,60.68
2022-10-11T12:46:45.111Z,60.88
2022-10-11T12:47:45.167Z,61.18
2022-10-11T12:48:45.100Z,61.29
2022-10-11T12:49:45.070Z,60.68
2022-10-11T12:50:45.079Z,60.17
2022-10-11T12:51:45.048Z,60.17
2022-10-11T12:52:45.067Z,59.97
2022-10-11T12:53:48.126Z,59.66